Time;durP1;ratioP1;P1;durP2;ratioP2;P2;SDS_P1;SDS_P2;PMS_P1;PMS_P2;Temp;Humidity;BMP_temperature;BMP_pressure;BME280_temperature;BME280_humidity;BME280_pressure;Samples;Min_cycle;Max_cycle;Signal;HPM_P1;HPM_P2
2023/01/02 00:00:42;;;;;;;12.57;4.53;;;;;;;-144.47;62.86;52766.72;5004364;28;20029;-66
2023/01/02 00:03:07;;;;;;;10.25;4.43;;;;;;;-144.47;63.00;52776.66;5004532;28;20068;-66
2023/01/02 00:05:34;;;;;;;10.32;4.30;;;;;;;-144.47;62.95;52750.81;5006292;28;20029;-64
2023/01/02 00:08:00;;;;;;;10.77;4.38;;;;;;;-144.47;63.04;52758.78;5006756;28;20021;-64
2023/01/02 00:10:25;;;;;;;9.77;4.38;;;;;;;-144.47;62.96;52760.75;5005643;28;20376;-65
2023/01/02 00:12:50;;;;;;;9.05;4.30;;;;;;;-144.47;63.28;52774.66;5005345;28;20561;-65
2023/01/02 00:15:16;;;;;;;13.93;4.15;;;;;;;-144.47;63.37;52764.72;5005744;28;20025;-65
2023/01/02 00:17:41;;;;;;;13.88;4.80;;;;;;;-144.47;63.45;52798.50;5006410;28;20026;-65
2023/01/02 00:20:07;;;;;;;11.15;4.88;;;;;;;-144.47;63.59;52776.66;5006394;28;20021;-66
2023/01/02 00:22:33;;;;;;;16.50;5.03;;;;;;;-144.47;63.52;52802.47;5007183;28;20021;-64
2023/01/02 00:24:58;;;;;;;17.73;5.13;;;;;;;-144.47;63.43;52804.44;5007559;28;20095;-66
2023/01/02 00:27:24;;;;;;;13.43;5.35;;;;;;;-144.47;63.49;52780.63;5006352;28;20040;-67
2023/01/02 00:29:49;;;;;;;10.57;4.35;;;;;;;-144.47;63.66;52788.56;5006219;28;20017;-65
2023/01/02 00:32:14;;;;;;;15.02;5.07;;;;;;;-144.47;63.63;52778.63;5006427;28;20111;-66
2023/01/02 00:34:40;;;;;;;14.75;4.80;;;;;;;-144.47;63.63;52780.63;5002627;28;20030;-66
2023/01/02 00:37:05;;;;;;;11.13;4.55;;;;;;;-144.47;63.65;52776.66;5006503;28;20050;-65
2023/01/02 00:39:30;;;;;;;17.52;5.57;;;;;;;-144.47;63.77;52798.50;5007824;28;20448;-66
2023/01/02 00:41:56;;;;;;;8.85;4.18;;;;;;;-144.47;63.63;52762.75;5007598;28;20018;-67
2023/01/02 00:44:21;;;;;;;16.95;4.82;;;;;;;-144.47;63.34;52764.72;5006900;28;20384;-65
2023/01/02 00:46:46;;;;;;;10.48;4.90;;;;;;;-144.47;63.16;52754.81;5007090;28;20049;-65
2023/01/02 00:49:12;;;;;;;10.13;4.22;;;;;;;-144.47;62.84;52756.78;5006583;28;20021;-66
2023/01/02 00:51:37;;;;;;;10.43;4.60;;;;;;;-144.47;62.32;52752.81;5007571;28;20026;-66
2023/01/02 00:54:03;;;;;;;10.95;3.92;;;;;;;-144.47;62.05;52774.66;5007390;28;20113;-66
2023/01/02 00:56:28;;;;;;;9.95;3.90;;;;;;;-144.47;61.96;52790.56;5007215;28;20025;-65
2023/01/02 00:58:53;;;;;;;13.07;4.13;;;;;;;-144.47;61.57;52780.63;5006281;28;20485;-66
2023/01/02 01:01:19;;;;;;;11.65;4.20;;;;;;;-144.47;61.29;52764.72;5018933;28;20041;-66
2023/01/02 01:03:45;;;;;;;14.02;4.00;;;;;;;-144.47;61.32;52776.66;5011441;28;20022;-67
2023/01/02 01:06:11;;;;;;;11.05;4.15;;;;;;;-144.47;60.89;52744.88;5010622;28;20435;-65
2023/01/02 01:08:37;;;;;;;10.98;4.45;;;;;;;-144.47;60.49;52780.63;5010474;28;20045;-67
2023/01/02 01:11:13;;;;;;;9.15;3.97;;;;;;;-144.47;60.29;52768.69;5011364;28;20018;-67
2023/01/02 01:13:39;;;;;;;9.57;3.65;;;;;;;-144.47;60.27;52760.75;5003949;28;20038;-65
2023/01/02 01:16:07;;;;;;;10.80;3.40;;;;;;;-144.47;60.00;52774.66;5008324;28;20233;-65
2023/01/02 01:18:32;;;;;;;11.57;3.88;;;;;;;-144.47;59.85;52754.81;5010321;28;20045;-67
2023/01/02 01:20:57;;;;;;;8.82;3.70;;;;;;;-144.47;59.25;52770.69;5010760;28;20045;-68
2023/01/02 01:23:23;;;;;;;9.25;3.97;;;;;;;-144.47;59.30;52772.69;5009648;28;20480;-67
2023/01/02 01:25:48;;;;;;;8.95;3.92;;;;;;;-144.47;59.13;52768.69;5011435;28;20022;-65
2023/01/02 01:28:14;;;;;;;8.38;3.88;;;;;;;-144.47;59.03;52768.69;5005230;28;20044;-66
2023/01/02 01:30:40;;;;;;;7.53;3.00;;;;;;;-144.47;58.82;52762.75;5010714;28;20017;-65
2023/01/02 01:33:05;;;;;;;7.40;3.80;;;;;;;-144.47;58.46;52760.75;5010707;28;20115;-67
2023/01/02 01:35:32;;;;;;;7.65;3.47;;;;;;;-144.47;58.30;52764.72;5010858;28;20085;-65
2023/01/02 01:37:57;;;;;;;11.75;3.80;;;;;;;-144.47;58.41;52786.56;5009435;28;20022;-66
2023/01/02 01:40:23;;;;;;;7.50;3.15;;;;;;;-144.47;58.23;52750.81;5010868;28;20036;-65
2023/01/02 01:42:48;;;;;;;11.45;3.42;;;;;;;-144.47;58.38;52756.78;5010564;28;20033;-65
2023/01/02 01:45:15;;;;;;;15.20;4.13;;;;;;;-144.47;58.50;52752.81;5009130;28;20037;-67
2023/01/02 01:47:42;;;;;;;14.25;3.72;;;;;;;-144.47;58.52;52780.63;5010049;28;20021;-64
2023/01/02 01:50:20;;;;;;;7.18;3.83;;;;;;;-144.47;58.51;52762.75;5010548;28;20041;-65
2023/01/02 01:52:54;;;;;;;7.00;3.00;;;;;;;-144.47;58.41;52778.63;5008793;28;20444;-67
2023/01/02 01:55:32;;;;;;;6.70;3.00;;;;;;;-144.47;58.43;52762.75;5010546;28;20018;-65
2023/01/02 01:58:03;;;;;;;7.43;2.90;;;;;;;-144.47;58.43;52742.88;5009466;28;20083;-67
2023/01/02 02:00:29;;;;;;;7.43;2.85;;;;;;;-144.47;58.45;52760.75;5010010;28;20251;-66
2023/01/02 02:03:03;;;;;;;10.95;3.47;;;;;;;-144.47;58.53;52760.75;5008956;28;20046;-67
2023/01/02 02:05:29;;;;;;;9.15;3.00;;;;;;;-144.47;58.32;52740.91;5010149;28;20117;-66
2023/01/02 02:08:07;;;;;;;10.20;3.67;;;;;;;-144.47;58.28;52784.59;5008934;28;20030;-66
2023/01/02 02:10:32;;;;;;;7.72;2.95;;;;;;;-144.47;58.43;52760.75;5010984;28;20105;-66
2023/01/02 02:12:57;;;;;;;7.32;2.72;;;;;;;-144.47;58.44;52764.72;5008808;28;20172;-66
2023/01/02 02:15:34;;;;;;;7.13;3.35;;;;;;;-144.47;58.53;52780.63;5009970;28;20078;-66
2023/01/02 02:18:38;;;;;;;13.35;3.70;;;;;;;-144.47;58.49;52756.78;5009498;28;20032;-67
2023/01/02 02:21:41;;;;;;;6.70;2.67;;;;;;;-144.47;58.26;52744.88;4988183;28;20030;-66
2023/01/02 02:24:38;;;;;;;7.13;2.95;;;;;;;-144.47;58.41;52750.81;4985942;28;20042;-66
2023/01/02 02:27:23;;;;;;;6.25;2.72;;;;;;;-144.47;58.33;52750.81;5001008;28;20121;-66
2023/01/02 02:30:01;;;;;;;9.07;3.20;;;;;;;-144.47;58.30;52758.78;5008996;28;20029;-67
2023/01/02 02:33:01;;;;;;;13.57;3.60;;;;;;;-144.47;58.35;52768.69;5009918;28;20121;-65
2023/01/02 02:35:56;;;;;;;9.73;2.63;;;;;;;-144.47;58.55;52744.88;4996187;28;20034;-67
2023/01/02 02:38:27;;;;;;;6.97;2.75;;;;;;;-144.47;58.50;52762.75;4982269;28;20052;-67
2023/01/02 02:41:10;;;;;;;5.93;2.80;;;;;;;-144.47;58.43;52774.66;5009356;28;20429;-67
2023/01/02 02:43:56;;;;;;;7.68;2.95;;;;;;;-144.47;58.24;52752.81;5007214;28;20048;-67
2023/01/02 02:46:36;;;;;;;7.43;2.67;;;;;;;-144.47;58.33;52770.69;5009066;28;20122;-66
2023/01/02 02:49:02;;;;;;;6.32;2.60;;;;;;;-144.47;58.43;52784.59;5008928;28;20017;-64
2023/01/02 02:51:46;;;;;;;5.40;2.88;;;;;;;-144.47;58.55;52750.81;5009281;28;20040;-66
2023/01/02 02:54:21;;;;;;;8.50;3.08;;;;;;;-144.47;58.49;52766.72;5009090;28;20080;-66
2023/01/02 02:56:48;;;;;;;7.00;2.83;;;;;;;-144.47;58.60;52772.69;5008524;28;20591;-65
2023/01/02 02:59:14;;;;;;;7.80;2.55;;;;;;;-144.47;58.59;52762.75;5008135;28;20029;-66
2023/01/02 03:01:40;;;;;;;6.45;2.55;;;;;;;-144.47;58.71;52768.69;5008998;28;20022;-67
2023/01/02 03:04:20;;;;;;;8.90;3.60;;;;;;;-144.47;58.56;52776.66;5008595;28;20043;-66
2023/01/02 03:07:13;;;;;;;10.50;2.92;;;;;;;-144.47;58.50;52760.75;5008221;28;20141;-67
2023/01/02 03:09:41;;;;;;;13.30;2.80;;;;;;;-144.47;58.40;52758.78;5001418;28;20351;-67
2023/01/02 03:12:24;;;;;;;6.75;2.75;;;;;;;-144.47;58.57;52764.72;5009130;28;20030;-67
2023/01/02 03:15:00;;;;;;;6.63;2.90;;;;;;;-144.47;58.58;52774.66;5008344;28;20025;-67
2023/01/02 03:17:32;;;;;;;7.63;3.22;;;;;;;-144.47;58.41;52752.81;5008457;28;20053;-67
2023/01/02 03:20:05;;;;;;;7.65;2.60;;;;;;;-144.47;58.57;52782.59;5008635;28;20344;-65
2023/01/02 03:22:35;;;;;;;8.13;4.07;;;;;;;-144.47;58.48;52780.63;5008190;28;20133;-66
2023/01/02 03:25:02;;;;;;;11.38;2.97;;;;;;;-144.47;58.53;52762.75;5008073;28;20079;-65
2023/01/02 03:27:33;;;;;;;9.82;2.72;;;;;;;-144.47;58.65;52774.66;5007331;28;20022;-64
2023/01/02 03:30:03;;;;;;;9.52;3.35;;;;;;;-144.47;58.38;52760.75;5020944;28;20105;-64
2023/01/02 03:32:36;;;;;;;7.70;2.75;;;;;;;-144.47;58.10;52760.75;5008461;28;20096;-64
2023/01/02 03:35:08;;;;;;;5.93;2.53;;;;;;;-144.47;57.94;52768.69;5008516;28;20479;-64
2023/01/02 03:37:36;;;;;;;7.50;2.63;;;;;;;-144.47;57.81;52772.69;5007373;28;20026;-65
2023/01/02 03:40:08;;;;;;;10.63;2.90;;;;;;;-144.47;57.69;52764.72;5008217;28;20049;-67
2023/01/02 03:42:41;;;;;;;7.55;2.67;;;;;;;-144.47;57.71;52764.72;5008095;28;20061;-65
2023/01/02 03:45:15;;;;;;;8.95;2.90;;;;;;;-144.47;57.51;52748.84;5007811;28;20026;-64
2023/01/02 03:47:56;;;;;;;7.85;2.65;;;;;;;-144.47;57.42;52760.75;5007991;28;20025;-67
2023/01/02 03:50:28;;;;;;;6.65;2.20;;;;;;;-144.47;57.44;52768.69;5007818;28;20123;-66
2023/01/02 03:52:54;;;;;;;7.10;2.38;;;;;;;-144.47;57.46;52764.72;5008008;28;20028;-66
2023/01/02 03:55:23;;;;;;;6.55;2.22;;;;;;;-144.47;57.33;52736.94;5008095;28;20032;-66
2023/01/02 03:58:08;;;;;;;8.70;2.97;;;;;;;-144.47;57.29;52754.81;5007263;28;20033;-64
2023/01/02 04:00:41;;;;;;;5.82;2.53;;;;;;;-144.47;57.43;52764.72;5007861;28;20022;-66
2023/01/02 04:03:14;;;;;;;10.23;3.10;;;;;;;-144.47;57.21;52764.72;5008285;28;20029;-65
2023/01/02 04:05:39;;;;;;;10.52;2.70;;;;;;;-144.47;57.18;52768.69;4996017;28;20052;-66
2023/01/02 04:08:15;;;;;;;7.68;2.20;;;;;;;-144.47;57.34;52758.78;5006689;28;20396;-65
2023/01/02 04:10:44;;;;;;;12.23;2.80;;;;;;;-144.47;57.39;52778.63;5021544;23;20447;-64
2023/01/02 04:13:22;;;;;;;;;;;;;;;-144.47;57.43;52740.91;5009140;28;20140;-66
2023/01/02 04:15:50;;;;;;;6.75;2.53;;;;;;;-144.47;57.60;52768.69;5009633;28;19951;-68
2023/01/02 04:18:20;;;;;;;7.40;2.88;;;;;;;-144.47;57.40;52788.56;5009043;28;20030;-68
2023/01/02 04:20:50;;;;;;;7.28;2.95;;;;;;;-144.47;57.35;52780.63;5010017;28;20018;-68
2023/01/02 04:23:21;;;;;;;7.50;2.97;;;;;;;-144.47;57.43;52742.88;5009279;28;20041;-68
2023/01/02 04:25:59;;;;;;;6.93;2.90;;;;;;;-144.47;57.51;52750.81;5003020;28;20487;-66
2023/01/02 04:28:30;;;;;;;5.33;2.40;;;;;;;-144.47;57.46;52770.69;5007916;28;20037;-67
2023/01/02 04:31:12;;;;;;;7.65;2.53;;;;;;;-144.47;57.49;52774.66;5008439;28;20038;-67
2023/01/02 04:33:43;;;;;;;7.00;3.05;;;;;;;-144.47;57.51;52766.72;5008296;28;20101;-68
2023/01/02 04:36:11;;;;;;;7.43;3.05;;;;;;;-144.47;57.65;52782.59;5008615;28;20022;-66
2023/01/02 04:38:37;;;;;;;10.80;3.30;;;;;;;-144.47;57.75;52774.66;5009082;28;20032;-69
2023/01/02 04:41:03;;;;;;;6.28;3.20;;;;;;;-144.47;57.85;52752.81;5009550;28;20018;-65
2023/01/02 04:43:29;;;;;;;9.57;3.58;;;;;;;-144.47;57.87;52756.78;5009481;28;20017;-68
2023/01/02 04:45:54;;;;;;;10.52;2.88;;;;;;;-144.47;57.81;52786.56;5009897;28;20353;-66
2023/01/02 04:48:20;;;;;;;7.07;2.67;;;;;;;-144.47;57.88;52778.63;5007690;28;20026;-66
2023/01/02 04:50:45;;;;;;;10.57;3.50;;;;;;;-144.47;57.94;52766.72;5009861;28;20022;-66
2023/01/02 04:53:11;;;;;;;10.98;2.88;;;;;;;-144.47;57.87;52758.78;5009012;28;20092;-65
2023/01/02 04:55:37;;;;;;;7.78;3.03;;;;;;;-144.47;57.88;52768.69;5009408;28;20026;-68
2023/01/02 04:58:03;;;;;;;10.15;3.60;;;;;;;-144.47;57.91;52750.81;5008426;28;20045;-65
2023/01/02 05:00:29;;;;;;;6.75;2.83;;;;;;;-144.47;57.90;52760.75;5008888;28;20026;-67
2023/01/02 05:02:54;;;;;;;5.72;2.42;;;;;;;-144.47;57.78;52756.78;5009935;28;20025;-68
2023/01/02 05:05:19;;;;;;;6.45;2.53;;;;;;;-144.47;57.83;52772.69;5009121;28;20030;-65
2023/01/02 05:07:45;;;;;;;4.90;2.30;;;;;;;-144.47;57.88;52754.81;5008674;28;20022;-67
2023/01/02 05:10:11;;;;;;;7.80;2.63;;;;;;;-144.47;57.84;52734.94;5009435;28;20022;-67
2023/01/02 05:12:37;;;;;;;6.20;2.35;;;;;;;-144.47;57.72;52768.69;5009036;28;20402;-66
2023/01/02 05:15:04;;;;;;;6.10;2.25;;;;;;;-144.47;57.91;52736.94;5001334;28;20025;-67
2023/01/02 05:17:41;;;;;;;6.15;2.45;;;;;;;-144.47;57.85;52754.81;5009199;28;20495;-67
2023/01/02 05:20:11;;;;;;;7.15;2.50;;;;;;;-144.47;57.96;52778.63;5009429;28;20017;-68
2023/01/02 05:25:23;;;;;;;7.68;2.25;;;;;;;-144.47;57.92;52750.81;5009906;28;20092;-68
2023/01/02 05:27:52;;;;;;;6.40;2.55;;;;;;;-144.47;57.77;52796.50;5008784;28;20423;-67
2023/01/02 05:30:17;;;;;;;7.93;2.35;;;;;;;-144.47;57.88;52764.72;5010105;28;20017;-64
2023/01/02 05:32:42;;;;;;;7.05;2.10;;;;;;;-144.47;57.88;52754.81;5011052;28;20036;-69
2023/01/02 05:35:08;;;;;;;9.05;2.60;;;;;;;-144.47;58.15;52796.50;5011096;28;20041;-68
2023/01/02 05:37:34;;;;;;;6.28;2.15;;;;;;;-144.47;58.05;52750.81;5008784;28;20100;-66
2023/01/02 05:39:59;;;;;;;6.53;2.30;;;;;;;-144.47;58.08;52768.69;5008981;28;20549;-67
2023/01/02 05:42:24;;;;;;;8.68;2.28;;;;;;;-144.47;57.79;52782.59;5008218;28;20061;-66
2023/01/02 05:44:51;;;;;;;7.68;2.38;;;;;;;-144.47;57.65;52770.69;5008571;28;20025;-67
2023/01/02 05:47:16;;;;;;;5.70;2.17;;;;;;;-144.47;57.61;52772.69;5008094;28;20030;-64
2023/01/02 05:49:41;;;;;;;29.35;3.75;;;;;;;-144.47;57.61;52768.69;5011435;28;20079;-67
2023/01/02 05:52:07;;;;;;;11.02;2.25;;;;;;;-144.47;57.34;52764.72;5012151;28;20026;-68
2023/01/02 05:54:32;;;;;;;7.55;2.42;;;;;;;-144.47;57.24;52758.78;5012875;28;20057;-66
2023/01/02 05:56:57;;;;;;;6.55;1.80;;;;;;;-144.47;56.98;52766.72;5011636;28;20032;-69
2023/01/02 05:59:23;;;;;;;10.15;2.30;;;;;;;-144.47;56.87;52774.66;5011315;28;20080;-65
2023/01/02 06:01:48;;;;;;;10.13;2.00;;;;;;;-144.47;56.96;52756.78;5013778;28;20028;-68
2023/01/02 06:04:14;;;;;;;5.03;1.92;;;;;;;-144.47;56.95;52770.69;5012067;28;20056;-66
2023/01/02 06:06:39;;;;;;;5.85;2.30;;;;;;;-144.47;56.88;52764.72;5010960;28;20371;-67
2023/01/02 06:09:06;;;;;;;7.03;2.35;;;;;;;-144.47;56.61;52768.69;5011941;28;20061;-67
2023/01/02 06:11:33;;;;;;;6.95;2.47;;;;;;;-144.47;56.47;52770.69;5012013;28;20021;-66
2023/01/02 06:13:58;;;;;;;6.00;2.30;;;;;;;-144.47;56.46;52756.78;5011613;28;20022;-67
2023/01/02 06:16:24;;;;;;;6.90;1.95;;;;;;;-144.47;56.37;52744.88;5011409;28;20072;-66
2023/01/02 06:18:50;;;;;;;6.75;2.22;;;;;;;-144.47;56.54;52792.53;5012035;28;20030;-68
2023/01/02 06:21:17;;;;;;;9.27;2.55;;;;;;;-144.47;56.22;52742.88;5012272;28;20010;-66
2023/01/02 06:23:43;;;;;;;9.73;2.30;;;;;;;-144.47;56.14;52748.84;5011796;28;20045;-65
2023/01/02 06:26:16;;;;;;;5.57;2.10;;;;;;;-144.47;56.06;52784.59;5012033;28;20025;-67
2023/01/02 06:28:43;;;;;;;8.52;2.47;;;;;;;-144.47;55.93;52758.78;5006265;28;20510;-65
2023/01/02 06:31:13;;;;;;;6.22;2.20;;;;;;;-144.47;56.05;52766.72;5011212;28;20466;-65
2023/01/02 06:33:39;;;;;;;6.60;3.20;;;;;;;-144.47;56.41;52760.75;5011252;28;20018;-66
2023/01/02 06:36:14;;;;;;;8.77;2.65;;;;;;;-144.47;56.38;52736.94;5011358;28;20495;-65
2023/01/02 06:38:39;;;;;;;8.20;2.20;;;;;;;-144.47;56.27;52744.88;5011742;28;20540;-70
2023/01/02 06:41:07;;;;;;;5.30;2.17;;;;;;;-144.47;56.27;52756.78;5011547;28;20033;-67
2023/01/02 06:43:33;;;;;;;9.60;2.55;;;;;;;-144.47;56.32;52752.81;5010374;28;20018;-68
2023/01/02 06:46:00;;;;;;;7.32;2.22;;;;;;;-144.47;56.19;52758.78;5011672;28;20026;-65
2023/01/02 06:48:26;;;;;;;6.82;2.45;;;;;;;-144.47;56.32;52772.69;5008830;28;20024;-67
2023/01/02 06:50:51;;;;;;;7.35;2.45;;;;;;;-144.47;56.37;52776.66;5011407;28;20017;-67
2023/01/02 06:53:16;;;;;;;11.00;2.90;;;;;;;-144.47;56.64;52762.75;5010545;28;20025;-66
2023/01/02 06:55:52;;;;;;;9.02;2.67;;;;;;;-144.47;57.19;52766.72;5010202;28;20053;-67
2023/01/02 06:58:18;;;;;;;9.27;2.75;;;;;;;-144.47;56.86;52774.66;5008250;28;20025;-66
2023/01/02 07:00:44;;;;;;;6.22;2.53;;;;;;;-144.47;56.80;52752.81;4997767;28;20053;-67
2023/01/02 07:03:09;;;;;;;6.63;2.10;;;;;;;-144.47;57.79;52770.69;5010590;28;20064;-66
2023/01/02 07:05:34;;;;;;;6.07;2.55;;;;;;;-144.47;58.26;52774.66;5009648;28;20025;-67
2023/01/02 07:08:00;;;;;;;8.38;2.65;;;;;;;-144.47;59.04;52742.88;5009709;28;20026;-67
2023/01/02 07:10:25;;;;;;;14.38;2.80;;;;;;;-144.47;59.20;52756.78;5009991;28;20025;-67
2023/01/02 07:12:50;;;;;;;5.35;2.00;;;;;;;-144.47;60.06;52768.69;5010406;28;20052;-67
2023/01/02 07:15:16;;;;;;;7.47;2.50;;;;;;;-144.47;60.42;52770.69;5010492;28;20040;-65
2023/01/02 07:17:41;;;;;;;6.13;2.40;;;;;;;-144.47;60.44;52756.78;5007821;28;20018;-68
2023/01/02 07:20:07;;;;;;;7.07;2.67;;;;;;;-144.47;61.15;52768.69;5008926;28;20022;-65
2023/01/02 07:22:32;;;;;;;5.80;2.30;;;;;;;-144.47;61.29;52764.72;5000376;28;20034;-67
2023/01/02 07:24:58;;;;;;;7.95;2.55;;;;;;;-144.47;61.23;52810.41;5005963;28;20041;-66
2023/01/02 07:27:23;;;;;;;9.05;2.33;;;;;;;-144.47;61.51;52790.56;5008045;28;20041;-67
2023/01/02 07:29:48;;;;;;;7.65;2.08;;;;;;;-144.47;61.23;52786.56;5009368;28;20045;-66
2023/01/02 07:32:14;;;;;;;7.22;2.97;;;;;;;-144.47;60.86;52784.59;5009007;28;20577;-68
2023/01/02 07:34:39;;;;;;;5.68;2.35;;;;;;;-144.47;60.99;52742.88;5008461;28;20178;-68
2023/01/02 07:37:05;;;;;;;7.55;2.67;;;;;;;-144.47;60.72;52776.66;5008429;28;20022;-66
2023/01/02 07:39:30;;;;;;;10.00;2.47;;;;;;;-144.47;60.35;52768.69;5010510;28;20100;-67
2023/01/02 07:41:55;;;;;;;10.77;2.45;;;;;;;-144.47;60.62;52778.63;5009805;28;20756;-66
2023/01/02 07:44:21;;;;;;;8.52;2.78;;;;;;;-144.47;60.72;52788.56;5009449;28;20064;-67
2023/01/02 07:46:46;;;;;;;11.70;2.47;;;;;;;-144.47;60.57;52748.84;5010036;28;20054;-67
2023/01/02 07:49:11;;;;;;;6.90;2.83;;;;;;;-144.47;60.20;52752.81;5010090;28;20072;-68
2023/01/02 07:51:37;;;;;;;9.82;2.65;;;;;;;-144.47;60.12;52754.81;5009871;28;20444;-68
2023/01/02 07:54:03;;;;;;;6.70;2.40;;;;;;;-144.47;60.02;52772.69;5010441;28;20531;-68
2023/01/02 07:56:28;;;;;;;6.65;2.72;;;;;;;-144.47;61.59;52774.66;5008471;28;20033;-66
2023/01/02 07:58:53;;;;;;;8.73;2.28;;;;;;;-144.47;60.22;52764.72;5008905;28;20018;-67
2023/01/02 08:01:19;;;;;;;4.18;1.92;;;;;;;-144.47;60.42;52738.91;5009783;28;20028;-65
2023/01/02 08:03:44;;;;;;;7.20;2.17;;;;;;;-144.47;59.25;52794.53;5009449;28;20056;-65
2023/01/02 08:06:15;;;;;;;6.15;2.65;;;;;;;-144.47;59.00;52762.75;5010108;28;20029;-68
2023/01/02 08:08:41;;;;;;;6.38;2.35;;;;;;;-144.47;58.88;52764.72;5009604;28;20108;-68
2023/01/02 08:11:09;;;;;;;11.52;3.53;;;;;;;-144.47;58.73;52782.59;5009677;28;20045;-67
2023/01/02 08:13:35;;;;;;;9.80;2.90;;;;;;;-144.47;58.77;52774.66;5004231;28;20041;-64
2023/01/02 08:16:08;;;;;;;8.80;2.80;;;;;;;-144.47;58.78;52758.78;5008367;28;20725;-66
2023/01/02 08:18:34;;;;;;;5.60;2.25;;;;;;;-144.47;58.79;52766.72;4995917;28;20095;-67
2023/01/02 08:21:00;;;;;;;14.52;3.00;;;;;;;-144.47;58.79;52794.53;5010302;28;20025;-67
2023/01/02 08:23:26;;;;;;;10.63;2.95;;;;;;;-144.47;58.92;52758.78;5009497;28;20022;-64
2023/01/02 08:25:51;;;;;;;8.70;3.10;;;;;;;-144.47;58.85;52752.81;5009968;28;20022;-68
2023/01/02 08:28:16;;;;;;;9.40;2.58;;;;;;;-144.47;58.93;52784.59;5003294;28;20072;-67
2023/01/02 08:30:42;;;;;;;6.65;2.75;;;;;;;-144.47;58.75;52744.88;5009373;28;20764;-68
2023/01/02 08:33:07;;;;;;;6.78;2.35;;;;;;;-144.47;58.81;52800.47;5007778;28;20030;-65
2023/01/02 08:35:32;;;;;;;11.00;2.33;;;;;;;-144.47;58.88;52778.63;5009520;28;20578;-69
2023/01/02 08:37:58;;;;;;;9.95;2.58;;;;;;;-144.47;58.83;52758.78;5007165;28;20018;-69
2023/01/02 08:40:23;;;;;;;8.93;3.03;;;;;;;-144.47;58.94;52758.78;5009419;28;20021;-67
2023/01/02 08:42:49;;;;;;;4.93;2.15;;;;;;;-144.47;58.85;52752.81;5008785;28;20026;-68
2023/01/02 08:45:15;;;;;;;8.27;2.65;;;;;;;-144.47;58.83;52758.78;5009043;28;20075;-65
2023/01/02 08:47:40;;;;;;;8.60;2.63;;;;;;;-144.47;58.85;52774.66;5009163;28;20025;-66
2023/01/02 08:50:06;;;;;;;9.38;3.30;;;;;;;-144.47;58.85;52766.72;5009435;28;20022;-68
2023/01/02 08:52:31;;;;;;;18.38;3.28;;;;;;;-144.47;58.60;52790.56;5009547;28;20080;-65
2023/01/02 08:54:59;;;;;;;9.82;2.90;;;;;;;-144.47;58.54;52790.56;5009949;28;20053;-67
2023/01/02 08:57:24;;;;;;;9.77;2.90;;;;;;;-144.47;58.58;52744.88;5008536;28;20025;-66
2023/01/02 08:59:49;;;;;;;12.57;2.80;;;;;;;-144.47;58.41;52758.78;5009141;28;20075;-68
2023/01/02 09:02:15;;;;;;;11.60;2.63;;;;;;;-144.47;58.17;52778.63;5009608;28;20106;-65
2023/01/02 09:04:40;;;;;;;12.25;2.53;;;;;;;-144.47;57.97;52758.78;5009934;28;20101;-68
2023/01/02 09:07:06;;;;;;;7.15;2.60;;;;;;;-144.47;57.52;52762.75;5008682;28;20053;-68
2023/01/02 09:09:31;;;;;;;8.63;3.03;;;;;;;-144.47;57.51;52782.59;5009173;28;20076;-67
2023/01/02 09:11:58;;;;;;;6.95;2.33;;;;;;;-144.47;57.54;52806.44;5009599;28;20173;-65
2023/01/02 09:14:23;;;;;;;14.20;3.75;;;;;;;-144.47;57.60;52770.69;5000311;28;20072;-66
2023/01/02 09:16:50;;;;;;;8.55;3.20;;;;;;;-144.47;57.38;52756.78;5009059;28;20082;-69
2023/01/02 09:19:16;;;;;;;14.82;3.33;;;;;;;-144.47;57.44;52764.72;5009077;28;20075;-64
2023/01/02 09:21:42;;;;;;;10.32;2.53;;;;;;;-144.47;57.39;52754.81;5009036;28;20117;-67
2023/01/02 09:24:07;;;;;;;10.80;3.00;;;;;;;-144.47;57.51;52762.75;5015661;28;20040;-69
2023/01/02 09:26:33;;;;;;;8.90;2.90;;;;;;;-144.47;57.28;52768.69;5014034;28;20104;-69
2023/01/02 09:28:59;;;;;;;13.38;3.53;;;;;;;-144.47;57.39;52764.72;5009993;28;20077;-68
2023/01/02 09:31:24;;;;;;;10.05;3.10;;;;;;;-144.47;57.09;52752.81;5013129;28;20029;-66
2023/01/02 09:33:52;;;;;;;8.32;2.65;;;;;;;-144.47;57.12;52752.81;5012329;28;20444;-68
2023/01/02 09:36:19;;;;;;;14.32;2.78;;;;;;;-144.47;56.83;52748.84;5012557;28;20041;-68
2023/01/02 09:38:59;;;;;;;7.57;2.85;;;;;;;-144.47;56.99;52788.56;5013163;28;20065;-65
2023/01/02 09:41:33;;;;;;;8.45;3.13;;;;;;;-144.47;56.80;52758.78;5013039;28;20029;-66
2023/01/02 09:44:22;;;;;;;14.40;2.53;;;;;;;-144.47;56.29;52762.75;5011748;28;20041;-68
2023/01/02 09:47:22;;;;;;;6.15;2.33;;;;;;;-144.47;56.02;52758.78;5006958;28;20045;-69
2023/01/02 09:49:52;;;;;;;8.32;2.90;;;;;;;-144.47;55.86;52752.81;4988928;28;20084;-68
2023/01/02 09:52:24;;;;;;;9.98;2.60;;;;;;;-144.47;55.74;52744.88;5011981;28;20018;-69
2023/01/02 09:54:50;;;;;;;6.35;2.30;;;;;;;-144.47;55.50;52758.78;5013175;28;20025;-66
2023/01/02 09:57:18;;;;;;;12.82;3.22;;;;;;;-144.47;55.48;52756.78;5011732;28;20017;-66
2023/01/02 09:59:49;;;;;;;13.98;2.42;;;;;;;-144.47;55.17;52744.88;5011344;28;20056;-69
2023/01/02 10:02:29;;;;;;;9.98;2.67;;;;;;;-144.47;54.72;52752.81;5012107;28;20092;-68
2023/01/02 10:05:11;;;;;;;12.13;3.38;;;;;;;-144.47;54.56;52728.97;5011741;28;20044;-68
2023/01/02 10:07:51;;;;;;;12.45;2.47;;;;;;;-144.47;54.50;52762.75;5011242;28;20052;-68
2023/01/02 10:10:33;;;;;;;7.28;2.05;;;;;;;-144.47;54.79;52736.94;5021161;23;20125;-67
2023/01/02 10:13:29;;;;;;;11.02;2.95;;;;;;;-144.47;54.75;52744.88;5010652;28;20112;-65
2023/01/02 10:15:59;;;;;;;12.02;3.22;;;;;;;-144.47;54.53;52766.72;5010800;28;20025;-68
2023/01/02 10:18:43;;;;;;;13.52;3.45;;;;;;;-144.47;54.32;52758.78;5011055;28;20347;-67
2023/01/02 10:21:17;;;;;;;13.30;2.58;;;;;;;-144.47;54.04;52756.78;5008493;28;20017;-67
2023/01/02 10:23:47;;;;;;;9.25;2.83;;;;;;;-144.47;53.76;52766.72;5010387;28;20026;-65
2023/01/02 10:26:17;;;;;;;8.32;2.60;;;;;;;-144.47;53.78;52723.03;5009691;28;20029;-67
2023/01/02 10:28:45;;;;;;;9.35;3.03;;;;;;;-144.47;53.74;52730.97;5005875;28;20018;-67
2023/01/02 10:31:16;;;;;;;8.70;2.55;;;;;;;-144.47;53.55;52732.94;5010791;28;20125;-68
2023/01/02 10:33:50;;;;;;;8.95;2.80;;;;;;;-144.47;53.69;52740.91;5008131;28;20026;-67
2023/01/02 10:36:25;;;;;;;9.95;4.20;;;;;;;-144.47;53.71;52754.81;5009405;28;20030;-65
2023/01/02 10:38:55;;;;;;;9.07;2.30;;;;;;;-144.47;53.96;52764.72;5010180;28;20455;-66
2023/01/02 10:41:21;;;;;;;10.30;3.22;;;;;;;-144.47;53.83;52730.97;5009817;28;20029;-67
2023/01/02 10:43:53;;;;;;;8.30;2.58;;;;;;;-144.47;53.88;52740.91;5008954;28;20041;-67
2023/01/02 10:46:18;;;;;;;8.95;4.00;;;;;;;-144.47;53.95;52744.88;5009596;28;20021;-67
2023/01/02 10:48:44;;;;;;;5.72;2.38;;;;;;;-144.47;53.92;52744.88;5009361;28;20490;-66
2023/01/02 10:51:13;;;;;;;6.30;2.47;;;;;;;-144.47;53.95;52766.72;5009842;28;20017;-64
2023/01/02 10:53:39;;;;;;;4.70;1.88;;;;;;;-144.47;53.94;52760.75;5009744;28;20083;-65
2023/01/02 10:56:19;;;;;;;5.22;2.28;;;;;;;-144.47;53.57;52734.94;5009716;28;20022;-67
2023/01/02 10:58:49;;;;;;;13.63;3.42;;;;;;;-144.47;53.58;52742.88;5008338;28;20121;-66
2023/01/02 11:01:20;;;;;;;6.18;2.03;;;;;;;-144.47;53.20;52750.81;5010085;28;20018;-68
2023/01/02 11:03:48;;;;;;;20.92;3.30;;;;;;;-144.47;53.23;52736.94;5009821;28;20073;-66
2023/01/02 11:06:22;;;;;;;5.97;2.35;;;;;;;-144.47;53.07;52748.84;5009311;28;20482;-66
2023/01/02 11:08:59;;;;;;;11.88;2.20;;;;;;;-144.47;52.98;52740.91;5009991;28;20733;-67
2023/01/02 11:11:25;;;;;;;12.50;2.40;;;;;;;-144.47;52.51;52756.78;5009846;28;20068;-66
2023/01/02 11:13:56;;;;;;;11.73;2.55;;;;;;;-144.47;52.22;52738.91;4990456;28;20015;-69
2023/01/02 11:16:25;;;;;;;13.27;2.90;;;;;;;-144.47;51.99;52742.88;5008771;28;20066;-66
2023/01/02 11:18:58;;;;;;;6.47;1.95;;;;;;;-144.47;51.46;52750.81;5011117;28;20017;-68
2023/01/02 11:21:25;;;;;;;17.90;2.60;;;;;;;-144.47;51.05;52740.91;5011491;28;20103;-67
2023/01/02 11:23:58;;;;;;;10.45;2.72;;;;;;;-144.47;50.75;52728.97;5012757;28;20108;-66
2023/01/02 11:26:24;;;;;;;14.20;2.53;;;;;;;-144.47;50.79;52748.84;5011422;28;20161;-66